sensor_id;sensor_type;location;lat;lon;timestamp;P1;durP1;ratioP1;P2;durP2;ratioP2
4963;SDS011;2497;47.410;9.740;2023-02-15T00:00:18;93.15;;;18.88;;
4963;SDS011;2497;47.410;9.740;2023-02-15T00:02:45;127.85;;;20.55;;
4963;SDS011;2497;47.410;9.740;2023-02-15T00:05:14;101.40;;;17.60;;
4963;SDS011;2497;47.410;9.740;2023-02-15T00:07:41;144.48;;;19.65;;
4963;SDS011;2497;47.410;9.740;2023-02-15T00:10:08;75.28;;;16.38;;
4963;SDS011;2497;47.410;9.740;2023-02-15T00:12:37;37.50;;;14.43;;
4963;SDS011;2497;47.410;9.740;2023-02-15T00:15:04;69.15;;;17.27;;
4963;SDS011;2497;47.410;9.740;2023-02-15T00:17:31;74.10;;;17.27;;
4963;SDS011;2497;47.410;9.740;2023-02-15T00:19:58;64.00;;;16.13;;
4963;SDS011;2497;47.410;9.740;2023-02-15T00:22:27;73.97;;;16.40;;
4963;SDS011;2497;47.410;9.740;2023-02-15T00:24:54;122.03;;;17.83;;
4963;SDS011;2497;47.410;9.740;2023-02-15T00:27:21;79.35;;;16.88;;
4963;SDS011;2497;47.410;9.740;2023-02-15T00:29:48;78.57;;;15.90;;
4963;SDS011;2497;47.410;9.740;2023-02-15T00:32:15;100.10;;;17.90;;
4963;SDS011;2497;47.410;9.740;2023-02-15T00:34:42;116.10;;;20.67;;
4963;SDS011;2497;47.410;9.740;2023-02-15T00:37:09;55.85;;;16.70;;
4963;SDS011;2497;47.410;9.740;2023-02-15T00:39:38;68.15;;;15.85;;
4963;SDS011;2497;47.410;9.740;2023-02-15T00:42:05;77.28;;;16.90;;
4963;SDS011;2497;47.410;9.740;2023-02-15T00:44:32;65.40;;;14.77;;
4963;SDS011;2497;47.410;9.740;2023-02-15T00:46:59;47.00;;;14.82;;
4963;SDS011;2497;47.410;9.740;2023-02-15T00:49:26;52.95;;;14.63;;
4963;SDS011;2497;47.410;9.740;2023-02-15T00:51:53;79.53;;;15.05;;
4963;SDS011;2497;47.410;9.740;2023-02-15T00:54:20;87.60;;;16.00;;
4963;SDS011;2497;47.410;9.740;2023-02-15T00:56:49;85.88;;;14.85;;
4963;SDS011;2497;47.410;9.740;2023-02-15T00:59:16;84.25;;;14.70;;
4963;SDS011;2497;47.410;9.740;2023-02-15T01:01:43;69.30;;;16.13;;
4963;SDS011;2497;47.410;9.740;2023-02-15T01:04:10;65.95;;;13.48;;
4963;SDS011;2497;47.410;9.740;2023-02-15T01:06:37;112.57;;;15.48;;
4963;SDS011;2497;47.410;9.740;2023-02-15T01:09:04;107.22;;;14.75;;
4963;SDS011;2497;47.410;9.740;2023-02-15T01:11:31;106.97;;;16.33;;
4963;SDS011;2497;47.410;9.740;2023-02-15T01:14:00;61.80;;;12.82;;
4963;SDS011;2497;47.410;9.740;2023-02-15T01:16:28;72.28;;;14.32;;
4963;SDS011;2497;47.410;9.740;2023-02-15T01:18:56;36.78;;;11.70;;
4963;SDS011;2497;47.410;9.740;2023-02-15T01:21:23;35.75;;;12.25;;
4963;SDS011;2497;47.410;9.740;2023-02-15T01:23:51;87.88;;;13.85;;
4963;SDS011;2497;47.410;9.740;2023-02-15T01:26:19;51.50;;;13.85;;
4963;SDS011;2497;47.410;9.740;2023-02-15T01:28:46;41.72;;;13.25;;
4963;SDS011;2497;47.410;9.740;2023-02-15T01:31:15;45.28;;;13.30;;
4963;SDS011;2497;47.410;9.740;2023-02-15T01:33:44;64.70;;;12.93;;
4963;SDS011;2497;47.410;9.740;2023-02-15T01:36:11;49.85;;;12.40;;
4963;SDS011;2497;47.410;9.740;2023-02-15T01:38:39;40.90;;;14.07;;
4963;SDS011;2497;47.410;9.740;2023-02-15T01:41:06;50.58;;;12.13;;
4963;SDS011;2497;47.410;9.740;2023-02-15T01:43:48;48.22;;;14.32;;
4963;SDS011;2497;47.410;9.740;2023-02-15T01:46:19;33.03;;;13.70;;
4963;SDS011;2497;47.410;9.740;2023-02-15T01:48:50;30.92;;;12.20;;
4963;SDS011;2497;47.410;9.740;2023-02-15T01:51:21;47.63;;;13.98;;
4963;SDS011;2497;47.410;9.740;2023-02-15T01:53:51;47.95;;;14.20;;
4963;SDS011;2497;47.410;9.740;2023-02-15T01:56:24;41.28;;;12.20;;
4963;SDS011;2497;47.410;9.740;2023-02-15T01:58:54;48.92;;;13.43;;
4963;SDS011;2497;47.410;9.740;2023-02-15T02:01:26;38.60;;;13.10;;
4963;SDS011;2497;47.410;9.740;2023-02-15T02:03:56;66.57;;;13.82;;
4963;SDS011;2497;47.410;9.740;2023-02-15T02:06:28;37.53;;;11.95;;
4963;SDS011;2497;47.410;9.740;2023-02-15T02:08:57;56.67;;;13.05;;
4963;SDS011;2497;47.410;9.740;2023-02-15T02:11:24;40.40;;;13.90;;
4963;SDS011;2497;47.410;9.740;2023-02-15T02:13:51;76.15;;;12.75;;
4963;SDS011;2497;47.410;9.740;2023-02-15T02:16:22;34.40;;;12.25;;
4963;SDS011;2497;47.410;9.740;2023-02-15T02:18:58;49.35;;;11.73;;
4963;SDS011;2497;47.410;9.740;2023-02-15T02:24:48;21.70;;;11.15;;
4963;SDS011;2497;47.410;9.740;2023-02-15T02:27:42;28.35;;;10.70;;
4963;SDS011;2497;47.410;9.740;2023-02-15T02:33:33;38.65;;;14.15;;
4963;SDS011;2497;47.410;9.740;2023-02-15T02:36:19;35.15;;;11.60;;
4963;SDS011;2497;47.410;9.740;2023-02-15T02:38:55;36.25;;;11.48;;
4963;SDS011;2497;47.410;9.740;2023-02-15T02:41:42;33.70;;;11.68;;
4963;SDS011;2497;47.410;9.740;2023-02-15T02:44:16;44.55;;;14.40;;
4963;SDS011;2497;47.410;9.740;2023-02-15T02:46:51;65.43;;;13.93;;
4963;SDS011;2497;47.410;9.740;2023-02-15T02:49:32;44.20;;;12.32;;
4963;SDS011;2497;47.410;9.740;2023-02-15T02:52:01;41.30;;;12.30;;
4963;SDS011;2497;47.410;9.740;2023-02-15T02:54:30;44.13;;;13.15;;
4963;SDS011;2497;47.410;9.740;2023-02-15T02:56:59;75.50;;;13.30;;
4963;SDS011;2497;47.410;9.740;2023-02-15T02:59:31;31.77;;;13.00;;
4963;SDS011;2497;47.410;9.740;2023-02-15T03:02:02;32.20;;;12.65;;
4963;SDS011;2497;47.410;9.740;2023-02-15T03:04:39;55.83;;;13.35;;
4963;SDS011;2497;47.410;9.740;2023-02-15T03:07:11;50.00;;;14.45;;
4963;SDS011;2497;47.410;9.740;2023-02-15T03:09:47;34.45;;;12.80;;
4963;SDS011;2497;47.410;9.740;2023-02-15T03:12:18;48.17;;;14.32;;
4963;SDS011;2497;47.410;9.740;2023-02-15T03:14:48;40.22;;;14.43;;
4963;SDS011;2497;47.410;9.740;2023-02-15T03:17:18;52.10;;;15.82;;
4963;SDS011;2497;47.410;9.740;2023-02-15T03:19:50;51.60;;;14.40;;
4963;SDS011;2497;47.410;9.740;2023-02-15T03:22:21;47.03;;;14.93;;
4963;SDS011;2497;47.410;9.740;2023-02-15T03:24:53;56.13;;;15.18;;
4963;SDS011;2497;47.410;9.740;2023-02-15T03:27:23;52.40;;;13.70;;
4963;SDS011;2497;47.410;9.740;2023-02-15T03:29:54;51.95;;;13.35;;
4963;SDS011;2497;47.410;9.740;2023-02-15T03:32:27;69.30;;;15.88;;
4963;SDS011;2497;47.410;9.740;2023-02-15T03:34:57;52.33;;;14.70;;
4963;SDS011;2497;47.410;9.740;2023-02-15T03:37:25;49.15;;;13.13;;
4963;SDS011;2497;47.410;9.740;2023-02-15T03:39:57;46.47;;;14.88;;
4963;SDS011;2497;47.410;9.740;2023-02-15T03:42:51;62.75;;;15.55;;
4963;SDS011;2497;47.410;9.740;2023-02-15T03:45:27;62.10;;;13.13;;
4963;SDS011;2497;47.410;9.740;2023-02-15T03:47:57;45.17;;;13.13;;
4963;SDS011;2497;47.410;9.740;2023-02-15T03:50:29;52.42;;;14.70;;
4963;SDS011;2497;47.410;9.740;2023-02-15T03:53:15;48.70;;;14.40;;
4963;SDS011;2497;47.410;9.740;2023-02-15T03:55:47;63.47;;;16.35;;
4963;SDS011;2497;47.410;9.740;2023-02-15T03:58:14;61.88;;;14.48;;
4963;SDS011;2497;47.410;9.740;2023-02-15T04:01:00;70.07;;;15.23;;
4963;SDS011;2497;47.410;9.740;2023-02-15T04:03:49;54.33;;;14.23;;
4963;SDS011;2497;47.410;9.740;2023-02-15T04:06:23;44.30;;;12.98;;
4963;SDS011;2497;47.410;9.740;2023-02-15T04:08:50;45.33;;;13.80;;
4963;SDS011;2497;47.410;9.740;2023-02-15T04:11:35;44.67;;;14.55;;
4963;SDS011;2497;47.410;9.740;2023-02-15T04:14:02;49.03;;;12.50;;
4963;SDS011;2497;47.410;9.740;2023-02-15T04:16:49;49.00;;;14.65;;
4963;SDS011;2497;47.410;9.740;2023-02-15T04:19:18;37.05;;;13.65;;
4963;SDS011;2497;47.410;9.740;2023-02-15T04:22:04;34.08;;;11.88;;
4963;SDS011;2497;47.410;9.740;2023-02-15T04:24:48;54.95;;;12.90;;
4963;SDS011;2497;47.410;9.740;2023-02-15T04:27:33;38.42;;;12.00;;
4963;SDS011;2497;47.410;9.740;2023-02-15T04:30:00;32.30;;;13.07;;
4963;SDS011;2497;47.410;9.740;2023-02-15T04:32:27;29.88;;;11.55;;
4963;SDS011;2497;47.410;9.740;2023-02-15T04:34:54;37.47;;;12.77;;
4963;SDS011;2497;47.410;9.740;2023-02-15T04:37:23;33.38;;;11.63;;
4963;SDS011;2497;47.410;9.740;2023-02-15T04:39:50;36.20;;;12.13;;
4963;SDS011;2497;47.410;9.740;2023-02-15T04:42:17;33.00;;;10.32;;
4963;SDS011;2497;47.410;9.740;2023-02-15T04:44:44;48.20;;;14.38;;
4963;SDS011;2497;47.410;9.740;2023-02-15T04:47:11;35.92;;;12.95;;
4963;SDS011;2497;47.410;9.740;2023-02-15T04:49:39;29.83;;;11.77;;
4963;SDS011;2497;47.410;9.740;2023-02-15T04:52:06;42.35;;;14.30;;
4963;SDS011;2497;47.410;9.740;2023-02-15T04:54:34;32.50;;;11.77;;
4963;SDS011;2497;47.410;9.740;2023-02-15T04:57:01;26.35;;;10.93;;
4963;SDS011;2497;47.410;9.740;2023-02-15T04:59:28;35.70;;;10.98;;
4963;SDS011;2497;47.410;9.740;2023-02-15T05:01:57;34.28;;;12.10;;
4963;SDS011;2497;47.410;9.740;2023-02-15T05:04:24;32.30;;;11.20;;
4963;SDS011;2497;47.410;9.740;2023-02-15T05:06:51;40.47;;;12.50;;
4963;SDS011;2497;47.410;9.740;2023-02-15T05:09:18;40.72;;;13.40;;
4963;SDS011;2497;47.410;9.740;2023-02-15T05:11:47;38.17;;;12.85;;
4963;SDS011;2497;47.410;9.740;2023-02-15T05:14:14;46.70;;;13.85;;
4963;SDS011;2497;47.410;9.740;2023-02-15T05:16:41;45.25;;;15.63;;
4963;SDS011;2497;47.410;9.740;2023-02-15T05:19:08;38.90;;;12.13;;
4963;SDS011;2497;47.410;9.740;2023-02-15T05:21:35;32.05;;;13.63;;
4963;SDS011;2497;47.410;9.740;2023-02-15T05:24:02;36.75;;;13.13;;
4963;SDS011;2497;47.410;9.740;2023-02-15T05:26:51;40.67;;;13.82;;
4963;SDS011;2497;47.410;9.740;2023-02-15T05:29:36;34.10;;;11.73;;
4963;SDS011;2497;47.410;9.740;2023-02-15T05:32:03;65.68;;;15.88;;
4963;SDS011;2497;47.410;9.740;2023-02-15T05:34:30;28.13;;;12.30;;
4963;SDS011;2497;47.410;9.740;2023-02-15T05:36:57;33.13;;;12.90;;
4963;SDS011;2497;47.410;9.740;2023-02-15T05:39:24;51.65;;;14.90;;
4963;SDS011;2497;47.410;9.740;2023-02-15T05:41:53;33.10;;;11.73;;
4963;SDS011;2497;47.410;9.740;2023-02-15T05:44:20;35.55;;;13.18;;
4963;SDS011;2497;47.410;9.740;2023-02-15T05:46:47;46.30;;;15.80;;
4963;SDS011;2497;47.410;9.740;2023-02-15T05:49:14;31.77;;;12.18;;
4963;SDS011;2497;47.410;9.740;2023-02-15T05:51:41;84.22;;;14.90;;
4963;SDS011;2497;47.410;9.740;2023-02-15T05:54:08;41.75;;;14.93;;
4963;SDS011;2497;47.410;9.740;2023-02-15T05:56:35;60.17;;;12.73;;
4963;SDS011;2497;47.410;9.740;2023-02-15T05:59:07;32.35;;;12.90;;
4963;SDS011;2497;47.410;9.740;2023-02-15T06:01:35;67.60;;;15.68;;
4963;SDS011;2497;47.410;9.740;2023-02-15T06:04:05;42.03;;;13.00;;
4963;SDS011;2497;47.410;9.740;2023-02-15T06:06:34;45.15;;;15.27;;
4963;SDS011;2497;47.410;9.740;2023-02-15T06:09:02;47.83;;;12.68;;
4963;SDS011;2497;47.410;9.740;2023-02-15T06:11:29;68.72;;;13.43;;
4963;SDS011;2497;47.410;9.740;2023-02-15T06:13:56;93.32;;;13.85;;
4963;SDS011;2497;47.410;9.740;2023-02-15T06:16:25;107.13;;;15.65;;
4963;SDS011;2497;47.410;9.740;2023-02-15T06:18:52;65.18;;;13.18;;
4963;SDS011;2497;47.410;9.740;2023-02-15T06:21:19;94.43;;;13.75;;
4963;SDS011;2497;47.410;9.740;2023-02-15T06:23:46;94.75;;;14.25;;
4963;SDS011;2497;47.410;9.740;2023-02-15T06:26:13;84.95;;;15.60;;
4963;SDS011;2497;47.410;9.740;2023-02-15T06:28:40;43.88;;;15.00;;
4963;SDS011;2497;47.410;9.740;2023-02-15T06:31:07;90.68;;;15.60;;
4963;SDS011;2497;47.410;9.740;2023-02-15T06:33:36;54.92;;;12.32;;
4963;SDS011;2497;47.410;9.740;2023-02-15T06:36:03;36.17;;;12.38;;
4963;SDS011;2497;47.410;9.740;2023-02-15T06:38:31;60.20;;;14.32;;
4963;SDS011;2497;47.410;9.740;2023-02-15T06:40:58;106.25;;;20.25;;
4963;SDS011;2497;47.410;9.740;2023-02-15T06:43:25;93.78;;;16.75;;
4963;SDS011;2497;47.410;9.740;2023-02-15T06:45:52;130.40;;;17.88;;
4963;SDS011;2497;47.410;9.740;2023-02-15T06:48:19;50.33;;;17.92;;
4963;SDS011;2497;47.410;9.740;2023-02-15T06:50:48;65.10;;;19.75;;
4963;SDS011;2497;47.410;9.740;2023-02-15T06:53:15;75.35;;;21.13;;
4963;SDS011;2497;47.410;9.740;2023-02-15T06:55:42;76.82;;;19.40;;
4963;SDS011;2497;47.410;9.740;2023-02-15T06:58:09;90.95;;;22.67;;
4963;SDS011;2497;47.410;9.740;2023-02-15T07:00:36;88.40;;;23.65;;
4963;SDS011;2497;47.410;9.740;2023-02-15T07:03:03;62.67;;;22.38;;
4963;SDS011;2497;47.410;9.740;2023-02-15T07:05:32;66.80;;;20.58;;
4963;SDS011;2497;47.410;9.740;2023-02-15T07:08:01;57.15;;;21.25;;
4963;SDS011;2497;47.410;9.740;2023-02-15T07:10:29;120.13;;;26.17;;
4963;SDS011;2497;47.410;9.740;2023-02-15T07:12:56;123.90;;;24.80;;
4963;SDS011;2497;47.410;9.740;2023-02-15T07:15:22;101.97;;;19.60;;
4963;SDS011;2497;47.410;9.740;2023-02-15T07:17:50;61.90;;;19.73;;
4963;SDS011;2497;47.410;9.740;2023-02-15T07:20:18;80.03;;;20.92;;
4963;SDS011;2497;47.410;9.740;2023-02-15T07:22:47;80.40;;;20.98;;
4963;SDS011;2497;47.410;9.740;2023-02-15T07:25:16;95.43;;;20.80;;
4963;SDS011;2497;47.410;9.740;2023-02-15T07:27:43;60.92;;;20.42;;
4963;SDS011;2497;47.410;9.740;2023-02-15T07:30:12;80.15;;;22.55;;
4963;SDS011;2497;47.410;9.740;2023-02-15T07:32:40;53.90;;;19.27;;
4963;SDS011;2497;47.410;9.740;2023-02-15T07:35:21;77.30;;;17.25;;
4963;SDS011;2497;47.410;9.740;2023-02-15T07:37:48;68.78;;;17.80;;
4963;SDS011;2497;47.410;9.740;2023-02-15T07:40:16;71.82;;;16.42;;
4963;SDS011;2497;47.410;9.740;2023-02-15T07:42:44;85.93;;;16.13;;
4963;SDS011;2497;47.410;9.740;2023-02-15T07:45:11;59.60;;;15.45;;
4963;SDS011;2497;47.410;9.740;2023-02-15T07:47:38;63.80;;;14.38;;
4963;SDS011;2497;47.410;9.740;2023-02-15T07:50:05;105.32;;;16.00;;
4963;SDS011;2497;47.410;9.740;2023-02-15T07:52:33;88.28;;;15.32;;
4963;SDS011;2497;47.410;9.740;2023-02-15T07:55:00;90.20;;;15.60;;
4963;SDS011;2497;47.410;9.740;2023-02-15T07:57:29;101.72;;;18.30;;
4963;SDS011;2497;47.410;9.740;2023-02-15T07:59:56;91.38;;;14.45;;
4963;SDS011;2497;47.410;9.740;2023-02-15T08:02:23;79.70;;;16.35;;
4963;SDS011;2497;47.410;9.740;2023-02-15T08:04:50;103.22;;;18.23;;
4963;SDS011;2497;47.410;9.740;2023-02-15T08:07:17;71.63;;;18.70;;
4963;SDS011;2497;47.410;9.740;2023-02-15T08:09:44;50.67;;;16.58;;
4963;SDS011;2497;47.410;9.740;2023-02-15T08:12:12;77.50;;;19.75;;
4963;SDS011;2497;47.410;9.740;2023-02-15T08:14:40;89.47;;;18.20;;
4963;SDS011;2497;47.410;9.740;2023-02-15T08:17:07;72.22;;;19.27;;
4963;SDS011;2497;47.410;9.740;2023-02-15T08:19:34;68.50;;;18.65;;
4963;SDS011;2497;47.410;9.740;2023-02-15T08:22:02;98.82;;;18.83;;
4963;SDS011;2497;47.410;9.740;2023-02-15T08:24:31;97.28;;;19.92;;
4963;SDS011;2497;47.410;9.740;2023-02-15T08:27:03;79.97;;;20.08;;
4963;SDS011;2497;47.410;9.740;2023-02-15T08:29:31;72.60;;;15.75;;
4963;SDS011;2497;47.410;9.740;2023-02-15T08:32:00;88.07;;;17.35;;
4963;SDS011;2497;47.410;9.740;2023-02-15T08:34:31;46.25;;;17.15;;
4963;SDS011;2497;47.410;9.740;2023-02-15T08:36:59;62.78;;;18.23;;
4963;SDS011;2497;47.410;9.740;2023-02-15T08:39:26;93.03;;;18.17;;
4963;SDS011;2497;47.410;9.740;2023-02-15T08:41:54;88.95;;;20.23;;
4963;SDS011;2497;47.410;9.740;2023-02-15T08:44:21;61.85;;;18.63;;
4963;SDS011;2497;47.410;9.740;2023-02-15T08:46:48;58.33;;;18.65;;
4963;SDS011;2497;47.410;9.740;2023-02-15T08:49:18;83.30;;;19.43;;
4963;SDS011;2497;47.410;9.740;2023-02-15T08:51:46;53.95;;;19.00;;
4963;SDS011;2497;47.410;9.740;2023-02-15T08:54:15;64.05;;;18.17;;
4963;SDS011;2497;47.410;9.740;2023-02-15T08:56:43;68.07;;;19.55;;
4963;SDS011;2497;47.410;9.740;2023-02-15T08:59:12;89.28;;;21.27;;
4963;SDS011;2497;47.410;9.740;2023-02-15T09:01:41;66.90;;;20.27;;
4963;SDS011;2497;47.410;9.740;2023-02-15T09:04:08;58.90;;;17.80;;
4963;SDS011;2497;47.410;9.740;2023-02-15T09:06:39;64.00;;;19.00;;
4963;SDS011;2497;47.410;9.740;2023-02-15T09:09:08;91.57;;;18.52;;
4963;SDS011;2497;47.410;9.740;2023-02-15T09:11:37;50.88;;;17.75;;
4963;SDS011;2497;47.410;9.740;2023-02-15T09:14:06;78.10;;;19.52;;
4963;SDS011;2497;47.410;9.740;2023-02-15T09:16:35;61.03;;;18.33;;
4963;SDS011;2497;47.410;9.740;2023-02-15T09:19:03;53.35;;;19.10;;
4963;SDS011;2497;47.410;9.740;2023-02-15T09:21:31;45.27;;;18.43;;
4963;SDS011;2497;47.410;9.740;2023-02-15T09:24:02;65.53;;;17.93;;
4963;SDS011;2497;47.410;9.740;2023-02-15T09:26:31;60.35;;;17.02;;
4963;SDS011;2497;47.410;9.740;2023-02-15T09:29:00;58.83;;;18.60;;
4963;SDS011;2497;47.410;9.740;2023-02-15T09:31:29;59.17;;;17.00;;
4963;SDS011;2497;47.410;9.740;2023-02-15T09:33:59;50.15;;;16.90;;
4963;SDS011;2497;47.410;9.740;2023-02-15T09:36:28;39.70;;;15.93;;
4963;SDS011;2497;47.410;9.740;2023-02-15T09:38:58;71.90;;;17.83;;
4963;SDS011;2497;47.410;9.740;2023-02-15T09:41:39;45.87;;;16.13;;
4963;SDS011;2497;47.410;9.740;2023-02-15T09:44:27;48.93;;;15.10;;
4963;SDS011;2497;47.410;9.740;2023-02-15T09:47:06;46.47;;;15.40;;
4963;SDS011;2497;47.410;9.740;2023-02-15T09:49:55;35.38;;;14.45;;
4963;SDS011;2497;47.410;9.740;2023-02-15T09:52:39;51.13;;;16.20;;
4963;SDS011;2497;47.410;9.740;2023-02-15T09:55:37;47.13;;;16.10;;
4963;SDS011;2497;47.410;9.740;2023-02-15T09:58:13;44.88;;;13.48;;
4963;SDS011;2497;47.410;9.740;2023-02-15T10:00:51;48.92;;;15.85;;
4963;SDS011;2497;47.410;9.740;2023-02-15T10:03:30;57.30;;;18.47;;
4963;SDS011;2497;47.410;9.740;2023-02-15T10:06:13;37.30;;;15.17;;
4963;SDS011;2497;47.410;9.740;2023-02-15T10:11:57;40.27;;;16.17;;
4963;SDS011;2497;47.410;9.740;2023-02-15T10:14:47;37.60;;;15.23;;
4963;SDS011;2497;47.410;9.740;2023-02-15T10:17:38;35.27;;;14.13;;
4963;SDS011;2497;47.410;9.740;2023-02-15T10:20:17;42.20;;;12.87;;
4963;SDS011;2497;47.410;9.740;2023-02-15T10:22:56;37.47;;;13.67;;
4963;SDS011;2497;47.410;9.740;2023-02-15T10:25:37;41.80;;;13.97;;
4963;SDS011;2497;47.410;9.740;2023-02-15T10:28:11;36.07;;;15.23;;
4963;SDS011;2497;47.410;9.740;2023-02-15T10:30:46;47.47;;;16.57;;
4963;SDS011;2497;47.410;9.740;2023-02-15T10:33:27;38.13;;;15.00;;
4963;SDS011;2497;47.410;9.740;2023-02-15T10:36:06;41.60;;;12.90;;
4963;SDS011;2497;47.410;9.740;2023-02-15T10:38:50;29.00;;;12.13;;
4963;SDS011;2497;47.410;9.740;2023-02-15T10:41:26;30.33;;;13.10;;
4963;SDS011;2497;47.410;9.740;2023-02-15T10:44:13;39.90;;;12.80;;
4963;SDS011;2497;47.410;9.740;2023-02-15T10:47:03;26.97;;;12.63;;
4963;SDS011;2497;47.410;9.740;2023-02-15T10:49:56;40.67;;;14.60;;
4963;SDS011;2497;47.410;9.740;2023-02-15T10:52:35;35.63;;;13.43;;
4963;SDS011;2497;47.410;9.740;2023-02-15T10:55:12;32.17;;;12.90;;
4963;SDS011;2497;47.410;9.740;2023-02-15T10:57:46;28.60;;;13.63;;
4963;SDS011;2497;47.410;9.740;2023-02-15T11:00:22;28.77;;;13.93;;
4963;SDS011;2497;47.410;9.740;2023-02-15T11:03:06;36.27;;;15.17;;
4963;SDS011;2497;47.410;9.740;2023-02-15T11:05:45;37.47;;;14.20;;
4963;SDS011;2497;47.410;9.740;2023-02-15T11:08:24;30.07;;;13.37;;
4963;SDS011;2497;47.410;9.740;2023-02-15T11:10:56;33.17;;;13.87;;
4963;SDS011;2497;47.410;9.740;2023-02-15T11:13:27;30.73;;;14.67;;
4963;SDS011;2497;47.410;9.740;2023-02-15T11:16:02;33.50;;;15.63;;
4963;SDS011;2497;47.410;9.740;2023-02-15T11:18:34;33.27;;;14.27;;
4963;SDS011;2497;47.410;9.740;2023-02-15T11:21:05;43.80;;;15.90;;
4963;SDS011;2497;47.410;9.740;2023-02-15T11:23:39;34.97;;;15.10;;
4963;SDS011;2497;47.410;9.740;2023-02-15T11:26:12;32.47;;;13.67;;
4963;SDS011;2497;47.410;9.740;2023-02-15T11:28:43;27.77;;;13.80;;
4963;SDS011;2497;47.410;9.740;2023-02-15T11:31:17;34.67;;;12.73;;
4963;SDS011;2497;47.410;9.740;2023-02-15T11:33:49;33.97;;;14.40;;
4963;SDS011;2497;47.410;9.740;2023-02-15T11:36:21;32.30;;;12.50;;
4963;SDS011;2497;47.410;9.740;2023-02-15T11:38:56;29.93;;;13.70;;
4963;SDS011;2497;47.410;9.740;2023-02-15T11:41:29;31.70;;;12.37;;
4963;SDS011;2497;47.410;9.740;2023-02-15T11:44:05;28.67;;;13.43;;
4963;SDS011;2497;47.410;9.740;2023-02-15T11:46:40;31.10;;;12.57;;
4963;SDS011;2497;47.410;9.740;2023-02-15T11:49:17;35.57;;;13.53;;
4963;SDS011;2497;47.410;9.740;2023-02-15T11:51:48;33.10;;;12.20;;
4963;SDS011;2497;47.410;9.740;2023-02-15T11:54:17;25.97;;;12.37;;
4963;SDS011;2497;47.410;9.740;2023-02-15T11:56:53;30.43;;;12.80;;
4963;SDS011;2497;47.410;9.740;2023-02-15T11:59:24;33.00;;;13.60;;
4963;SDS011;2497;47.410;9.740;2023-02-15T12:01:55;33.37;;;13.33;;
4963;SDS011;2497;47.410;9.740;2023-02-15T12:04:25;26.87;;;13.20;;
4963;SDS011;2497;47.410;9.740;2023-02-15T12:06:58;33.70;;;12.93;;
4963;SDS011;2497;47.410;9.740;2023-02-15T12:09:34;39.23;;;13.40;;
4963;SDS011;2497;47.410;9.740;2023-02-15T12:12:23;34.30;;;14.50;;
4963;SDS011;2497;47.410;9.740;2023-02-15T12:14:52;28.47;;;12.00;;
4963;SDS011;2497;47.410;9.740;2023-02-15T12:17:20;35.70;;;13.40;;
4963;SDS011;2497;47.410;9.740;2023-02-15T12:19:51;30.33;;;12.60;;
4963;SDS011;2497;47.410;9.740;2023-02-15T12:22:22;24.63;;;11.83;;
4963;SDS011;2497;47.410;9.740;2023-02-15T12:24:52;36.50;;;11.80;;
4963;SDS011;2497;47.410;9.740;2023-02-15T12:27:22;30.83;;;13.43;;
4963;SDS011;2497;47.410;9.740;2023-02-15T12:29:52;29.27;;;13.43;;
4963;SDS011;2497;47.410;9.740;2023-02-15T12:32:23;33.63;;;14.30;;
4963;SDS011;2497;47.410;9.740;2023-02-15T12:34:56;28.33;;;13.90;;
4963;SDS011;2497;47.410;9.740;2023-02-15T12:37:28;34.03;;;14.37;;
4963;SDS011;2497;47.410;9.740;2023-02-15T12:39:57;32.53;;;13.60;;
4963;SDS011;2497;47.410;9.740;2023-02-15T12:42:26;33.10;;;12.60;;
4963;SDS011;2497;47.410;9.740;2023-02-15T12:44:56;25.20;;;11.67;;
4963;SDS011;2497;47.410;9.740;2023-02-15T12:47:25;31.97;;;13.30;;
4963;SDS011;2497;47.410;9.740;2023-02-15T12:52:44;30.80;;;13.07;;
4963;SDS011;2497;47.410;9.740;2023-02-15T12:55:18;28.07;;;13.00;;
4963;SDS011;2497;47.410;9.740;2023-02-15T12:57:47;28.57;;;12.10;;
4963;SDS011;2497;47.410;9.740;2023-02-15T13:00:25;23.00;;;12.37;;
4963;SDS011;2497;47.410;9.740;2023-02-15T13:02:57;29.40;;;12.70;;
4963;SDS011;2497;47.410;9.740;2023-02-15T13:05:28;32.33;;;13.23;;
4963;SDS011;2497;47.410;9.740;2023-02-15T13:08:01;25.30;;;12.50;;
4963;SDS011;2497;47.410;9.740;2023-02-15T13:10:31;29.23;;;14.30;;
4963;SDS011;2497;47.410;9.740;2023-02-15T13:13:01;27.03;;;13.10;;
4963;SDS011;2497;47.410;9.740;2023-02-15T13:15:37;24.77;;;11.20;;
4963;SDS011;2497;47.410;9.740;2023-02-15T13:18:10;25.90;;;13.30;;
4963;SDS011;2497;47.410;9.740;2023-02-15T13:20:43;28.30;;;12.10;;
4963;SDS011;2497;47.410;9.740;2023-02-15T13:23:19;26.23;;;11.83;;
4963;SDS011;2497;47.410;9.740;2023-02-15T13:25:54;29.73;;;13.30;;
4963;SDS011;2497;47.410;9.740;2023-02-15T13:28:24;26.10;;;12.87;;
4963;SDS011;2497;47.410;9.740;2023-02-15T13:31:08;27.13;;;12.40;;
4963;SDS011;2497;47.410;9.740;2023-02-15T13:33:40;23.90;;;12.80;;
4963;SDS011;2497;47.410;9.740;2023-02-15T13:36:15;27.67;;;12.00;;
4963;SDS011;2497;47.410;9.740;2023-02-15T13:38:52;31.53;;;13.60;;
4963;SDS011;2497;47.410;9.740;2023-02-15T13:41:31;23.80;;;12.40;;
4963;SDS011;2497;47.410;9.740;2023-02-15T14:56:23;33.53;;;12.57;;
4963;SDS011;2497;47.410;9.740;2023-02-15T14:59:12;35.77;;;15.03;;
4963;SDS011;2497;47.410;9.740;2023-02-15T15:01:42;36.50;;;14.67;;
4963;SDS011;2497;47.410;9.740;2023-02-15T15:04:31;29.60;;;12.70;;
4963;SDS011;2497;47.410;9.740;2023-02-15T15:07:03;32.23;;;13.10;;
4963;SDS011;2497;47.410;9.740;2023-02-15T15:09:35;33.93;;;13.70;;
4963;SDS011;2497;47.410;9.740;2023-02-15T15:12:35;31.17;;;13.13;;
4963;SDS011;2497;47.410;9.740;2023-02-15T15:15:09;33.30;;;13.80;;
4963;SDS011;2497;47.410;9.740;2023-02-15T15:17:54;28.33;;;13.23;;
4963;SDS011;2497;47.410;9.740;2023-02-15T15:20:37;28.23;;;13.73;;
4963;SDS011;2497;47.410;9.740;2023-02-15T15:26:21;34.63;;;13.10;;
4963;SDS011;2497;47.410;9.740;2023-02-15T15:28:55;31.37;;;13.37;;
4963;SDS011;2497;47.410;9.740;2023-02-15T15:31:26;41.33;;;14.40;;
4963;SDS011;2497;47.410;9.740;2023-02-15T15:37:16;36.87;;;15.20;;
4963;SDS011;2497;47.410;9.740;2023-02-15T15:40:16;32.83;;;13.80;;
4963;SDS011;2497;47.410;9.740;2023-02-15T15:43:24;35.87;;;15.27;;
4963;SDS011;2497;47.410;9.740;2023-02-15T15:46:25;33.90;;;14.17;;
4963;SDS011;2497;47.410;9.740;2023-02-15T15:49:10;34.63;;;14.47;;
4963;SDS011;2497;47.410;9.740;2023-02-15T15:51:41;37.20;;;14.83;;
4963;SDS011;2497;47.410;9.740;2023-02-15T15:54:12;41.27;;;14.90;;
4963;SDS011;2497;47.410;9.740;2023-02-15T15:56:43;33.00;;;15.53;;
4963;SDS011;2497;47.410;9.740;2023-02-15T15:59:14;33.60;;;14.10;;
4963;SDS011;2497;47.410;9.740;2023-02-15T16:01:48;32.10;;;13.97;;
4963;SDS011;2497;47.410;9.740;2023-02-15T16:04:22;41.63;;;15.87;;
4963;SDS011;2497;47.410;9.740;2023-02-15T16:06:50;34.03;;;13.90;;
4963;SDS011;2497;47.410;9.740;2023-02-15T16:09:19;33.13;;;13.47;;
4963;SDS011;2497;47.410;9.740;2023-02-15T16:11:48;32.73;;;14.37;;
4963;SDS011;2497;47.410;9.740;2023-02-15T16:14:19;38.93;;;14.87;;
4963;SDS011;2497;47.410;9.740;2023-02-15T16:16:54;42.70;;;17.73;;
4963;SDS011;2497;47.410;9.740;2023-02-15T16:19:24;40.13;;;15.60;;
4963;SDS011;2497;47.410;9.740;2023-02-15T16:21:54;43.03;;;16.80;;
4963;SDS011;2497;47.410;9.740;2023-02-15T16:24:35;46.47;;;17.40;;
4963;SDS011;2497;47.410;9.740;2023-02-15T16:27:15;48.10;;;15.87;;
4963;SDS011;2497;47.410;9.740;2023-02-15T16:30:15;43.60;;;15.13;;
4963;SDS011;2497;47.410;9.740;2023-02-15T16:32:51;39.37;;;14.70;;
4963;SDS011;2497;47.410;9.740;2023-02-15T16:35:21;40.17;;;16.40;;
4963;SDS011;2497;47.410;9.740;2023-02-15T16:37:49;47.83;;;15.80;;
4963;SDS011;2497;47.410;9.740;2023-02-15T16:40:27;46.43;;;17.23;;
4963;SDS011;2497;47.410;9.740;2023-02-15T16:43:17;39.23;;;14.73;;
4963;SDS011;2497;47.410;9.740;2023-02-15T16:45:47;43.53;;;15.90;;
4963;SDS011;2497;47.410;9.740;2023-02-15T16:48:20;42.47;;;17.13;;